Main page
METAR-TAF:

METAR-TAF

Airports :

Geneva Airport

Geneva, Switzerland

latitude: 46-15N, longitude: 006-08E, elevation: 420 m

Current weather observation

The report was made 20 minutes ago, at 12:20 UTC
Wind 5 kt from the East/Northeast, varying between North/Northeast and Southeast
Temperature 24°C
Humidity 50%
Pressure 1014 hPa
Visibility 10 km or more
no clouds below 1500 m and no cumulonimbus

METAR: LSGG 171220Z AUTO 07005KT 030V130 CAVOK 24/13 Q1014 NOSIG

Time: 14:40 (12:40 UTC)

Forecast

The report was made 1 hour and 15 minutes ago, at 11:25 UTC
Forecast valid from 17 at 12 UTC to 18 at 18 UTC
Wind 2 kt from variable directions
Visibility 10 km or more
Few clouds at a height of 7000 ft
Becoming
from 18 at 10 UTC to 18 at 12 UTC
Wind 8 kt from the Southwest

TAF: LSGG 171125Z 1712/1818 VRB02KT 9999 FEW070 TX25/1715Z TN15/1804Z TX28/1815Z BECMG 1810/1812 23008KT

Weather observations and forecasts of more than 4000 airports (METAR and TAF reports).

The available stations are represented by yellow and red dots on the map.

Hover mouse over dot to see the name of the station.

Then click to see weather observations and forecasts.

To change the map : click on the green buttons with a black cross to zoom in, on the green button with a dash to zoom out, or on the green arrows for adjacent maps.


METAR-TAF: